Time;durP1;ratioP1;P1;durP2;ratioP2;P2;SDS_P1;SDS_P2;PMS_P1;PMS_P2;Temp;Humidity;BMP_temperature;BMP_pressure;BME280_temperature;BME280_humidity;BME280_pressure;Samples;Min_cycle;Max_cycle;Signal;HPM_P1;HPM_P2
2023/02/13 00:01:41;;;;;;;44.08;24.15;;;4.10;99.90;;;;;;486508;244;27921;-76
2023/02/13 00:03:42;;;;;;;45.75;24.52;;;4.10;99.90;;;;;;486531;244;27552;-76
2023/02/13 00:05:44;;;;;;;41.40;23.58;;;4.10;99.90;;;;;;486578;244;27410;-76
2023/02/13 00:07:45;;;;;;;39.70;23.30;;;4.10;99.90;;;;;;486540;244;27473;-76
2023/02/13 00:09:46;;;;;;;47.45;23.55;;;4.10;99.90;;;;;;486530;244;27462;-76
2023/02/13 00:11:47;;;;;;;52.00;24.60;;;4.10;99.90;;;;;;486489;244;28024;-76
2023/02/13 00:13:49;;;;;;;45.92;24.90;;;4.10;99.90;;;;;;486541;244;28100;-76
2023/02/13 00:15:50;;;;;;;36.45;21.27;;;4.10;99.90;;;;;;486562;244;27455;-76
2023/02/13 00:17:51;;;;;;;46.45;25.58;;;4.10;99.90;;;;;;486528;244;27537;-76
2023/02/13 00:19:52;;;;;;;35.63;18.42;;;4.00;99.90;;;;;;486497;244;27574;-76
2023/02/13 00:21:54;;;;;;;30.02;18.50;;;4.00;99.90;;;;;;486473;244;27476;-76
2023/02/13 00:23:55;;;;;;;34.72;19.25;;;3.90;99.90;;;;;;486544;244;27509;-77
2023/02/13 00:25:56;;;;;;;43.95;22.20;;;3.90;99.90;;;;;;486505;244;27935;-75
2023/02/13 00:27:58;;;;;;;41.17;21.80;;;3.90;99.90;;;;;;486430;244;28066;-75
2023/02/13 00:29:59;;;;;;;39.67;22.80;;;3.90;99.90;;;;;;486432;244;27466;-77
2023/02/13 00:32:00;;;;;;;46.20;24.17;;;3.90;99.90;;;;;;486420;244;27446;-77
2023/02/13 00:34:01;;;;;;;51.42;24.25;;;3.90;99.90;;;;;;486475;244;27572;-77
2023/02/13 00:36:03;;;;;;;30.75;17.65;;;3.90;99.90;;;;;;486443;244;27411;-76
2023/02/13 00:38:04;;;;;;;38.33;20.55;;;3.80;99.90;;;;;;486473;244;27497;-76
2023/02/13 00:40:05;;;;;;;35.55;21.55;;;3.80;99.90;;;;;;486845;244;27902;-77
2023/02/13 00:42:06;;;;;;;44.88;22.60;;;3.80;99.90;;;;;;486783;244;28027;-77
2023/02/13 00:44:08;;;;;;;34.90;19.20;;;3.80;99.90;;;;;;486742;244;27470;-77
2023/02/13 00:46:09;;;;;;;35.88;20.77;;;3.80;99.90;;;;;;486738;244;27494;-78
2023/02/13 00:48:10;;;;;;;33.67;18.45;;;3.80;99.90;;;;;;486525;244;27457;-76
2023/02/13 00:50:11;;;;;;;39.22;22.13;;;3.80;99.90;;;;;;486657;244;27542;-77
2023/02/13 00:52:13;;;;;;;33.30;18.67;;;3.80;99.90;;;;;;486637;244;28073;-77
2023/02/13 00:54:14;;;;;;;33.03;18.95;;;3.80;99.90;;;;;;486548;244;27936;-76
2023/02/13 00:56:15;;;;;;;44.50;22.65;;;3.70;99.90;;;;;;486516;244;27395;-76
2023/02/13 00:58:16;;;;;;;28.02;16.33;;;3.70;99.90;;;;;;486481;244;27544;-76
2023/02/13 01:00:18;;;;;;;45.72;22.73;;;3.80;99.90;;;;;;486546;244;27429;-77
2023/02/13 01:02:19;;;;;;;47.90;24.92;;;3.70;99.90;;;;;;486514;244;27399;-76
2023/02/13 01:04:20;;;;;;;32.55;19.52;;;3.80;99.90;;;;;;486328;244;27564;-76
2023/02/13 01:06:21;;;;;;;37.97;20.27;;;3.80;99.90;;;;;;486571;244;27862;-76
2023/02/13 01:08:23;;;;;;;31.60;17.02;;;3.70;99.90;;;;;;486488;244;27997;-77
2023/02/13 01:10:24;;;;;;;44.42;22.77;;;3.70;99.90;;;;;;486521;244;27478;-76
2023/02/13 01:12:25;;;;;;;36.08;19.92;;;3.70;99.90;;;;;;486537;244;27502;-77
2023/02/13 01:14:26;;;;;;;33.33;18.95;;;3.60;99.90;;;;;;486547;244;27485;-77
2023/02/13 01:16:28;;;;;;;46.15;23.00;;;3.70;99.90;;;;;;486548;244;27561;-76
2023/02/13 01:18:29;;;;;;;40.35;22.67;;;3.70;99.90;;;;;;486530;244;27461;-76
2023/02/13 01:20:30;;;;;;;33.90;19.83;;;3.70;99.90;;;;;;486527;244;28704;-76
2023/02/13 01:22:31;;;;;;;33.55;19.15;;;3.70;99.90;;;;;;486581;244;27893;-75
2023/02/13 01:24:33;;;;;;;40.42;19.45;;;3.60;99.90;;;;;;486568;244;27434;-75
2023/02/13 01:26:34;;;;;;;38.22;20.80;;;3.60;99.90;;;;;;486545;244;27418;-76
2023/02/13 01:28:35;;;;;;;33.92;18.45;;;3.60;99.90;;;;;;486536;244;27529;-76
2023/02/13 01:30:37;;;;;;;32.17;18.67;;;3.60;99.90;;;;;;486594;244;27817;-77
2023/02/13 01:32:38;;;;;;;39.08;21.15;;;3.60;99.90;;;;;;486566;244;27415;-75
2023/02/13 01:34:39;;;;;;;44.65;22.87;;;3.60;99.90;;;;;;486515;244;27937;-77
2023/02/13 01:36:40;;;;;;;39.25;22.23;;;3.70;99.90;;;;;;486481;244;27905;-76
2023/02/13 01:38:42;;;;;;;45.45;22.90;;;3.60;99.90;;;;;;486476;244;27458;-77
2023/02/13 01:40:43;;;;;;;47.10;22.25;;;3.70;99.90;;;;;;486545;244;27561;-75
2023/02/13 01:42:44;;;;;;;34.95;19.98;;;3.80;99.90;;;;;;486562;244;27395;-76
2023/02/13 01:44:45;;;;;;;36.13;21.33;;;3.70;99.90;;;;;;486543;244;27438;-76
2023/02/13 01:46:47;;;;;;;42.05;22.45;;;3.60;99.90;;;;;;486530;244;27457;-75
2023/02/13 01:48:48;;;;;;;38.60;21.05;;;3.70;99.90;;;;;;486507;244;27926;-76
2023/02/13 01:50:49;;;;;;;41.45;22.83;;;3.70;99.90;;;;;;486511;244;28130;-76
2023/02/13 01:52:50;;;;;;;42.83;22.02;;;3.60;99.90;;;;;;486505;244;27450;-77
2023/02/13 01:54:52;;;;;;;39.63;21.62;;;3.70;99.90;;;;;;486509;244;27518;-78
2023/02/13 01:56:53;;;;;;;39.60;21.15;;;3.70;99.90;;;;;;486477;244;27517;-76
2023/02/13 01:58:54;;;;;;;41.28;21.00;;;3.60;99.90;;;;;;486519;243;27501;-76
2023/02/13 02:00:55;;;;;;;45.30;22.90;;;3.60;99.90;;;;;;486520;244;27442;-75
2023/02/13 02:02:57;;;;;;;41.58;23.17;;;3.70;99.90;;;;;;486488;244;28028;-76
2023/02/13 02:04:58;;;;;;;43.33;22.83;;;3.60;99.90;;;;;;486448;244;27478;-76
2023/02/13 02:06:59;;;;;;;43.13;22.58;;;3.60;99.90;;;;;;486450;244;27394;-76
2023/02/13 02:09:01;;;;;;;38.58;22.73;;;3.60;99.90;;;;;;486513;244;27430;-76
2023/02/13 02:11:02;;;;;;;41.37;21.85;;;3.60;99.90;;;;;;486508;244;27429;-77
2023/02/13 02:13:03;;;;;;;46.05;22.48;;;3.60;99.90;;;;;;486528;244;27398;-76
2023/02/13 02:15:04;;;;;;;51.28;23.70;;;3.60;99.90;;;;;;486489;244;27449;-76
2023/02/13 02:17:05;;;;;;;41.67;22.60;;;3.70;99.90;;;;;;486468;244;28596;-74
2023/02/13 02:19:07;;;;;;;37.75;20.35;;;3.70;99.90;;;;;;486455;244;28091;-74
2023/02/13 02:21:08;;;;;;;37.70;20.80;;;3.60;99.90;;;;;;486442;244;27481;-75
2023/02/13 02:23:09;;;;;;;36.65;20.40;;;3.50;99.90;;;;;;486427;244;27406;-74
2023/02/13 02:25:10;;;;;;;37.05;20.65;;;3.50;99.90;;;;;;486425;244;27442;-74
2023/02/13 02:27:12;;;;;;;42.42;22.25;;;3.50;99.90;;;;;;486442;244;27474;-73
2023/02/13 02:29:13;;;;;;;42.70;22.35;;;3.50;99.90;;;;;;486513;244;27410;-74
2023/02/13 02:31:14;;;;;;;46.47;22.20;;;3.50;99.90;;;;;;486510;244;28026;-75
2023/02/13 02:33:16;;;;;;;47.83;21.15;;;3.50;99.90;;;;;;486509;244;29053;-74
2023/02/13 02:35:17;;;;;;;46.05;22.45;;;3.50;99.90;;;;;;486473;244;27462;-73
2023/02/13 02:37:18;;;;;;;42.72;22.10;;;3.50;99.90;;;;;;486486;244;27485;-74
2023/02/13 02:39:19;;;;;;;39.28;21.55;;;3.50;99.90;;;;;;486525;244;27454;-74
2023/02/13 02:43:40;;;;;;;40.78;20.88;;;3.50;99.90;;;;;;486474;242;27402;-74
2023/02/13 02:45:41;;;;;;;38.53;21.37;;;3.50;99.90;;;;;;486494;244;27965;-74
2023/02/13 02:50:02;;;;;;;39.85;20.52;;;3.40;99.90;;;;;;486493;244;27406;-74
2023/02/13 02:52:03;;;;;;;40.10;21.33;;;3.40;99.90;;;;;;486531;244;27533;-74
2023/02/13 02:55:05;;;;;;;36.72;20.55;;;3.40;99.90;;;;;;486531;244;27916;-76
2023/02/13 02:56:06;;;;;;;40.70;21.52;;;3.40;99.90;;;;;;486343;244;27874;-73
2023/02/13 03:07:26;;;;;;;43.65;22.42;;;3.50;99.90;;;;;;486537;244;27400;-74
2023/02/13 03:14:06;;;;;;;37.75;19.40;;;3.50;99.90;;;;;;486546;244;27450;-74
2023/02/13 03:23:06;;;;;;;32.38;18.85;;;3.50;99.90;;;;;;486548;242;27405;-75
2023/02/13 03:25:08;;;;;;;38.83;20.20;;;3.50;99.90;;;;;;486492;244;27466;-73
2023/02/13 03:27:09;;;;;;;37.75;20.35;;;3.40;99.90;;;;;;486475;244;27423;-74
2023/02/13 03:31:30;;;;;;;36.05;20.70;;;3.50;99.90;;;;;;486486;244;27505;-75
2023/02/13 03:33:31;;;;;;;32.30;18.20;;;3.40;99.90;;;;;;486549;244;28109;-74
2023/02/13 03:37:55;;;;;;;29.30;17.30;;;3.20;99.90;;;;;;486486;244;27501;-74
2023/02/13 03:39:56;;;;;;;30.08;17.17;;;3.20;99.90;;;;;;486503;244;27544;-75
2023/02/13 03:41:57;;;;;;;26.25;15.75;;;3.10;99.90;;;;;;486521;244;27422;-74
2023/02/13 03:43:59;;;;;;;25.10;15.75;;;3.10;99.90;;;;;;486519;244;27454;-74
2023/02/13 03:46:01;;;;;;;27.08;15.73;;;3.00;99.90;;;;;;486533;244;27552;-74
2023/02/13 03:50:04;;;;;;;32.05;18.42;;;3.00;99.90;;;;;;486464;244;27517;-74
2023/02/13 03:50:05;;;;;;;34.83;19.35;;;3.00;99.90;;;;;;486372;244;27910;-74
2023/02/13 03:52:07;;;;;;;30.48;17.90;;;3.00;99.90;;;;;;486505;244;27454;-75
2023/02/13 03:54:08;;;;;;;25.02;14.52;;;3.00;99.90;;;;;;486545;244;28081;-75
2023/02/13 04:00:48;;;;;;;28.77;16.20;;;3.00;99.90;;;;;;486489;244;27397;-72
2023/02/13 04:02:49;;;;;;;35.38;19.20;;;2.90;99.90;;;;;;486487;244;27529;-75
2023/02/13 04:04:50;;;;;;;33.60;18.77;;;2.90;99.90;;;;;;486513;244;27974;-74
2023/02/13 04:06:52;;;;;;;32.35;19.33;;;2.90;99.90;;;;;;486517;244;27892;-74
2023/02/13 04:08:53;;;;;;;27.50;15.95;;;2.90;99.90;;;;;;486491;244;27426;-74
2023/02/13 04:10:54;;;;;;;31.17;16.67;;;2.90;99.90;;;;;;486521;244;27437;-74
2023/02/13 04:12:55;;;;;;;33.75;20.10;;;2.90;99.90;;;;;;486507;244;27399;-75
2023/02/13 04:14:57;;;;;;;30.70;18.10;;;2.90;99.90;;;;;;486491;244;27437;-75
2023/02/13 04:16:58;;;;;;;29.27;17.20;;;2.90;99.90;;;;;;486510;244;27403;-74
2023/02/13 04:18:59;;;;;;;29.12;17.40;;;2.90;99.90;;;;;;486486;244;27985;-75
2023/02/13 04:21:00;;;;;;;27.20;15.65;;;2.90;99.90;;;;;;486567;244;29186;-73
2023/02/13 04:23:02;;;;;;;29.87;16.85;;;2.90;99.90;;;;;;486568;244;27394;-74
2023/02/13 04:25:03;;;;;;;27.98;16.17;;;2.90;99.90;;;;;;486531;244;27592;-75
2023/02/13 04:27:04;;;;;;;29.12;16.70;;;2.90;99.90;;;;;;486491;242;27399;-74
2023/02/13 04:29:05;;;;;;;34.78;19.00;;;2.90;99.90;;;;;;486480;244;27442;-75
2023/02/13 04:31:07;;;;;;;30.37;16.70;;;2.80;99.90;;;;;;486540;244;27771;-76
2023/02/13 04:33:08;;;;;;;32.92;17.48;;;2.90;99.90;;;;;;486536;244;27411;-74
2023/02/13 04:35:11;;;;;;;31.70;17.05;;;2.80;99.90;;;;;;486521;244;28084;-74
2023/02/13 04:37:10;;;;;;;34.20;17.73;;;2.80;99.90;;;;;;486474;244;27849;-74
2023/02/13 04:39:12;;;;;;;29.73;16.33;;;2.80;99.90;;;;;;486512;244;27446;-74
2023/02/13 04:41:13;;;;;;;31.90;17.95;;;2.80;99.90;;;;;;486556;244;27509;-75
2023/02/13 04:43:14;;;;;;;30.70;17.60;;;2.80;99.90;;;;;;486512;244;27403;-74
2023/02/13 04:45:15;;;;;;;31.05;16.17;;;2.80;99.90;;;;;;486496;244;27525;-74
2023/02/13 04:47:17;;;;;;;25.62;15.75;;;2.80;99.90;;;;;;486503;244;27405;-74
2023/02/13 04:49:18;;;;;;;26.40;14.50;;;2.80;99.90;;;;;;486503;244;27955;-74
2023/02/13 04:51:19;;;;;;;31.95;19.15;;;2.80;99.90;;;;;;486509;244;28026;-74
2023/02/13 04:53:20;;;;;;;26.12;15.38;;;2.80;99.90;;;;;;486455;244;27399;-75
2023/02/13 04:55:22;;;;;;;28.05;16.90;;;2.70;99.90;;;;;;486349;244;27577;-74
2023/02/13 04:57:23;;;;;;;33.22;17.55;;;2.70;99.90;;;;;;486312;244;27497;-73
2023/02/13 04:59:27;;;;;;;28.67;15.65;;;2.70;99.90;;;;;;486432;244;27422;-74
2023/02/13 05:01:26;;;;;;;33.55;17.27;;;2.70;99.90;;;;;;486228;244;27564;-75
2023/02/13 05:03:27;;;;;;;24.25;14.73;;;2.70;99.90;;;;;;486359;244;27566;-74
2023/02/13 05:05:28;;;;;;;24.55;14.00;;;2.70;99.90;;;;;;486398;244;27546;-73
2023/02/13 05:07:30;;;;;;;31.98;16.60;;;2.70;99.90;;;;;;486564;244;27485;-74
2023/02/13 05:09:31;;;;;;;25.75;15.85;;;2.60;99.90;;;;;;486509;244;27419;-74
2023/02/13 05:11:32;;;;;;;29.00;16.25;;;2.60;99.90;;;;;;486544;244;27549;-74
2023/02/13 05:13:33;;;;;;;24.30;13.95;;;2.60;99.90;;;;;;486493;244;27906;-75
2023/02/13 05:15:34;;;;;;;26.17;14.68;;;2.60;99.90;;;;;;486539;244;27936;-74
2023/02/13 05:17:36;;;;;;;27.98;16.08;;;2.60;99.90;;;;;;486553;244;27462;-74
2023/02/13 05:19:37;;;;;;;27.35;15.57;;;2.60;99.90;;;;;;486512;244;27541;-74
2023/02/13 05:23:58;;;;;;;21.80;13.40;;;2.50;99.90;;;;;;486537;242;27529;-75
2023/02/13 05:25:59;;;;;;;24.73;14.45;;;2.50;99.90;;;;;;486487;244;27469;-74
2023/02/13 05:28:00;;;;;;;25.05;15.20;;;2.50;99.90;;;;;;486488;244;27913;-73
2023/02/13 05:30:02;;;;;;;25.65;13.80;;;2.50;99.90;;;;;;486465;244;27879;-74
2023/02/13 05:32:03;;;;;;;27.77;14.27;;;2.50;99.90;;;;;;486541;244;27992;-74
2023/02/13 05:34:04;;;;;;;21.70;12.70;;;2.50;99.90;;;;;;486504;244;27433;-75
2023/02/13 05:36:05;;;;;;;25.70;15.23;;;2.40;99.90;;;;;;486475;242;27400;-74
2023/02/13 05:38:07;;;;;;;32.35;18.37;;;2.40;99.90;;;;;;486522;244;27477;-76
2023/02/13 05:40:08;;;;;;;27.23;14.10;;;2.50;99.90;;;;;;486483;244;27500;-74
2023/02/13 05:42:09;;;;;;;29.02;16.55;;;2.50;99.90;;;;;;486536;244;27462;-74
2023/02/13 05:44:10;;;;;;;27.13;16.20;;;2.50;99.90;;;;;;486509;244;27917;-75
2023/02/13 05:46:12;;;;;;;30.67;15.85;;;2.50;99.90;;;;;;486515;244;28026;-75
2023/02/13 05:48:13;;;;;;;29.37;16.02;;;2.50;99.90;;;;;;486502;244;27509;-75
2023/02/13 05:50:14;;;;;;;30.80;16.65;;;2.40;99.90;;;;;;486513;244;27442;-75
2023/02/13 05:52:15;;;;;;;33.17;19.65;;;2.40;99.90;;;;;;486541;244;27494;-74
2023/02/13 05:54:17;;;;;;;25.48;14.70;;;2.50;99.90;;;;;;486552;244;27549;-75
2023/02/13 05:56:18;;;;;;;28.20;15.30;;;2.50;99.90;;;;;;486507;244;27398;-74
2023/02/13 05:58:19;;;;;;;27.02;14.98;;;2.40;99.90;;;;;;486481;244;27541;-73
2023/02/13 06:00:20;;;;;;;23.25;13.68;;;2.30;99.90;;;;;;486526;244;28073;-74
2023/02/13 06:02:22;;;;;;;24.80;15.05;;;2.20;99.90;;;;;;486523;244;27956;-74
2023/02/13 06:04:23;;;;;;;26.62;15.55;;;2.20;99.90;;;;;;486528;244;27443;-74
2023/02/13 06:06:24;;;;;;;25.37;14.85;;;2.10;99.90;;;;;;486528;244;27470;-75
2023/02/13 06:08:26;;;;;;;31.23;15.43;;;2.10;99.90;;;;;;486491;244;27429;-74
2023/02/13 06:10:27;;;;;;;25.10;14.43;;;2.00;99.90;;;;;;486560;244;27863;-75
2023/02/13 06:12:28;;;;;;;24.25;15.32;;;2.00;99.90;;;;;;486522;244;27422;-73
2023/02/13 06:14:29;;;;;;;23.55;13.85;;;2.00;99.90;;;;;;486509;244;27953;-75
2023/02/13 06:16:31;;;;;;;26.02;14.87;;;2.00;99.90;;;;;;486505;244;27854;-74
2023/02/13 06:18:32;;;;;;;27.23;15.55;;;2.00;99.90;;;;;;486496;244;29013;-74
2023/02/13 06:20:33;;;;;;;24.65;14.02;;;2.00;99.90;;;;;;486537;244;27541;-75
2023/02/13 06:22:34;;;;;;;26.87;16.15;;;2.00;99.90;;;;;;486553;244;27410;-74
2023/02/13 06:24:36;;;;;;;26.67;14.80;;;1.90;99.90;;;;;;486488;244;27502;-76
2023/02/13 06:26:37;;;;;;;28.10;15.23;;;1.90;99.90;;;;;;486531;244;27434;-75
2023/02/13 06:28:38;;;;;;;21.37;13.57;;;1.70;99.90;;;;;;486486;244;27506;-74
2023/02/13 06:30:39;;;;;;;21.30;13.98;;;1.60;99.90;;;;;;486579;244;27993;-75
2023/02/13 06:32:41;;;;;;;24.40;13.88;;;1.50;99.90;;;;;;486547;244;28930;-76
2023/02/13 06:34:42;;;;;;;24.73;14.93;;;1.40;99.90;;;;;;486514;244;27442;-74
2023/02/13 06:36:43;;;;;;;25.33;14.75;;;1.40;99.90;;;;;;486531;244;27486;-75
2023/02/13 06:38:44;;;;;;;24.48;14.00;;;1.30;99.90;;;;;;486537;244;27455;-74
2023/02/13 06:40:46;;;;;;;23.27;12.85;;;1.40;99.90;;;;;;486564;244;27454;-75
2023/02/13 06:42:47;;;;;;;21.55;12.43;;;1.40;99.90;;;;;;486509;244;27480;-75
2023/02/13 06:44:48;;;;;;;27.65;14.27;;;1.40;99.90;;;;;;486490;244;27513;-75
2023/02/13 06:46:50;;;;;;;26.20;15.30;;;1.50;99.90;;;;;;486434;244;28129;-75
2023/02/13 06:48:51;;;;;;;30.27;18.30;;;1.60;99.90;;;;;;486447;244;28973;-74
2023/02/13 06:50:52;;;;;;;22.35;14.13;;;1.60;99.90;;;;;;486496;244;27478;-74
2023/02/13 06:52:53;;;;;;;31.77;16.27;;;1.60;99.90;;;;;;486491;244;27402;-74
2023/02/13 06:54:54;;;;;;;25.70;16.17;;;1.60;99.90;;;;;;486494;244;27438;-75
2023/02/13 06:56:56;;;;;;;29.83;15.82;;;1.60;99.90;;;;;;486472;244;27422;-74
2023/02/13 06:58:57;;;;;;;27.05;15.77;;;1.40;99.90;;;;;;486494;242;27407;-74
2023/02/13 07:00:58;;;;;;;22.33;13.45;;;1.20;99.90;;;;;;486548;244;27479;-75
2023/02/13 07:02:59;;;;;;;20.85;13.25;;;1.10;99.90;;;;;;486516;244;28023;-74
2023/02/13 07:05:02;;;;;;;23.12;13.02;;;1.00;99.90;;;;;;486463;244;27969;-75
2023/02/13 07:07:02;;;;;;;25.92;14.93;;;1.00;99.90;;;;;;486441;244;27393;-74
2023/02/13 07:09:03;;;;;;;25.37;15.55;;;1.10;99.90;;;;;;486538;244;27422;-74
2023/02/13 07:11:04;;;;;;;26.08;14.35;;;1.20;99.90;;;;;;486528;244;27593;-74
2023/02/13 07:13:06;;;;;;;26.50;14.48;;;1.30;99.90;;;;;;486480;244;27498;-74
2023/02/13 07:15:07;;;;;;;26.60;14.65;;;1.30;99.90;;;;;;486488;244;27431;-73
2023/02/13 07:17:09;;;;;;;24.15;13.52;;;1.30;99.90;;;;;;486510;244;28706;-75
2023/02/13 07:19:10;;;;;;;24.37;13.75;;;1.30;99.90;;;;;;486516;244;27897;-73
2023/02/13 07:21:11;;;;;;;23.42;14.23;;;1.40;99.90;;;;;;486549;244;27510;-75
2023/02/13 07:23:12;;;;;;;31.27;16.27;;;1.40;99.90;;;;;;486535;244;27405;-75
2023/02/13 07:25:13;;;;;;;28.33;15.95;;;1.40;99.90;;;;;;486484;244;27450;-74
2023/02/13 07:27:15;;;;;;;30.55;16.70;;;1.40;99.90;;;;;;486514;244;27534;-74
2023/02/13 07:29:16;;;;;;;29.90;15.90;;;1.40;99.90;;;;;;486527;244;27411;-74
2023/02/13 07:31:17;;;;;;;29.27;16.08;;;1.40;99.90;;;;;;486528;244;27469;-75
2023/02/13 07:33:18;;;;;;;26.67;14.90;;;1.40;99.90;;;;;;486518;244;27916;-73
2023/02/13 07:35:20;;;;;;;27.08;15.15;;;1.30;99.90;;;;;;486476;244;28040;-76
2023/02/13 07:37:21;;;;;;;27.17;15.73;;;1.30;99.90;;;;;;486544;244;27514;-74
2023/02/13 07:39:22;;;;;;;31.45;17.85;;;1.30;99.90;;;;;;486545;244;27482;-74
2023/02/13 07:41:26;;;;;;;33.83;19.30;;;1.30;99.90;;;;;;486508;244;27437;-75
2023/02/13 07:43:27;;;;;;;30.37;17.77;;;1.40;99.90;;;;;;486505;244;27930;-75
2023/02/13 07:45:29;;;;;;;27.40;16.37;;;1.50;99.90;;;;;;486511;244;27976;-74
2023/02/13 07:47:30;;;;;;;33.42;19.75;;;1.60;99.90;;;;;;486479;244;27553;-75
2023/02/13 07:49:31;;;;;;;28.15;16.92;;;1.70;99.90;;;;;;486548;244;27465;-74
2023/02/13 07:51:33;;;;;;;28.77;18.37;;;1.70;99.90;;;;;;486537;244;27525;-75
2023/02/13 07:53:34;;;;;;;27.48;16.73;;;1.70;99.90;;;;;;486533;244;27490;-75
2023/02/13 07:55:35;;;;;;;27.67;16.75;;;1.60;99.90;;;;;;486529;244;27545;-74
2023/02/13 07:57:36;;;;;;;29.83;16.92;;;1.60;99.90;;;;;;486492;244;27934;-75
2023/02/13 07:59:38;;;;;;;26.37;17.50;;;1.60;99.90;;;;;;486484;244;28639;-74
2023/02/13 08:01:39;;;;;;;23.27;15.02;;;1.60;99.90;;;;;;486353;244;27872;-75
2023/02/13 08:03:40;;;;;;;26.35;15.93;;;1.60;99.90;;;;;;486512;244;27501;-75
2023/02/13 08:05:41;;;;;;;24.73;14.80;;;1.70;99.90;;;;;;486523;244;27403;-75
2023/02/13 08:07:43;;;;;;;23.33;14.43;;;2.10;99.90;;;;;;486527;244;27550;-75
2023/02/13 08:12:03;;;;;;;24.37;15.70;;;2.30;99.90;;;;;;486574;243;27410;-74
2023/02/13 08:14:05;;;;;;;28.75;16.48;;;2.30;99.90;;;;;;486546;244;27470;-74
2023/02/13 08:16:06;;;;;;;19.27;13.07;;;2.20;99.90;;;;;;486519;244;27895;-74
2023/02/13 08:18:07;;;;;;;25.50;15.90;;;2.30;99.90;;;;;;486511;244;27545;-75
2023/02/13 08:20:08;;;;;;;26.58;14.63;;;2.50;99.90;;;;;;486554;244;27802;-75
2023/02/13 08:22:10;;;;;;;22.95;14.25;;;2.80;99.90;;;;;;486547;244;27982;-73
2023/02/13 08:24:11;;;;;;;25.62;15.30;;;2.90;99.90;;;;;;486524;244;27969;-76
2023/02/13 08:26:12;;;;;;;24.58;14.02;;;3.00;99.90;;;;;;486511;244;27950;-74
2023/02/13 08:28:13;;;;;;;22.60;13.38;;;3.20;99.90;;;;;;486492;244;27442;-74
2023/02/13 08:30:15;;;;;;;27.87;15.80;;;3.30;99.90;;;;;;486541;244;27534;-74
2023/02/13 08:32:16;;;;;;;25.60;15.65;;;3.50;99.90;;;;;;486547;244;27403;-74
2023/02/13 08:34:17;;;;;;;24.92;15.30;;;3.60;99.90;;;;;;486520;244;27819;-75
2023/02/13 08:36:18;;;;;;;23.73;14.82;;;3.60;99.90;;;;;;486491;244;27560;-74
2023/02/13 08:38:20;;;;;;;22.17;12.98;;;3.60;99.90;;;;;;486483;244;28782;-74
2023/02/13 08:40:21;;;;;;;22.85;12.75;;;3.80;99.90;;;;;;486533;244;27941;-74
2023/02/13 08:42:22;;;;;;;21.45;12.73;;;3.80;99.90;;;;;;486498;244;27477;-74
2023/02/13 08:44:23;;;;;;;23.35;13.68;;;3.90;99.90;;;;;;486508;244;27530;-74
2023/02/13 08:46:25;;;;;;;21.67;13.38;;;4.00;99.90;;;;;;486496;244;27493;-74
2023/02/13 08:48:26;;;;;;;21.08;12.63;;;4.00;99.90;;;;;;486534;244;27445;-74
2023/02/13 08:50:27;;;;;;;17.73;11.60;;;4.10;99.90;;;;;;486576;244;27476;-74
2023/02/13 08:52:28;;;;;;;19.33;11.63;;;4.00;99.90;;;;;;486543;244;27896;-74
2023/02/13 08:54:30;;;;;;;19.52;11.45;;;4.20;99.90;;;;;;486499;244;27921;-75
2023/02/13 08:56:31;;;;;;;25.48;14.40;;;4.20;99.90;;;;;;486473;244;27422;-74
2023/02/13 08:58:32;;;;;;;22.45;13.32;;;4.30;99.90;;;;;;486481;244;27447;-74
2023/02/13 09:00:33;;;;;;;19.25;12.20;;;4.40;99.90;;;;;;486536;244;27791;-75
2023/02/13 09:02:35;;;;;;;21.37;12.10;;;4.40;99.90;;;;;;486548;244;27419;-73
2023/02/13 09:04:36;;;;;;;21.85;13.50;;;4.50;99.90;;;;;;486518;244;27472;-76
2023/02/13 09:06:37;;;;;;;18.65;10.80;;;4.60;99.90;;;;;;486519;244;27842;-74
2023/02/13 09:08:38;;;;;;;20.83;12.43;;;4.50;99.90;;;;;;486483;244;28074;-74
2023/02/13 09:10:40;;;;;;;22.65;11.90;;;4.60;99.90;;;;;;486510;244;27563;-73
2023/02/13 09:12:41;;;;;;;19.55;11.32;;;4.60;99.90;;;;;;486562;244;27445;-74
2023/02/13 09:14:42;;;;;;;16.62;11.20;;;4.50;99.90;;;;;;486493;244;27458;-74
2023/02/13 09:16:44;;;;;;;16.60;10.60;;;4.60;99.90;;;;;;486445;244;27411;-75
2023/02/13 09:18:45;;;;;;;20.10;12.13;;;4.70;99.90;;;;;;486447;244;27946;-77
2023/02/13 09:20:46;;;;;;;18.67;11.50;;;4.80;99.90;;;;;;486461;244;28187;-73
2023/02/13 09:22:47;;;;;;;17.98;11.98;;;4.90;99.90;;;;;;486412;244;27398;-74
2023/02/13 09:24:49;;;;;;;18.30;10.45;;;4.90;99.90;;;;;;486343;244;27647;-73
2023/02/13 09:26:50;;;;;;;23.00;11.98;;;5.00;99.90;;;;;;486339;244;27489;-73
2023/02/13 09:28:51;;;;;;;18.33;11.07;;;5.10;99.90;;;;;;486323;244;27561;-74
2023/02/13 09:30:52;;;;;;;15.13;9.98;;;5.10;99.90;;;;;;486552;244;27933;-75
2023/02/13 09:32:54;;;;;;;14.73;10.00;;;5.10;99.90;;;;;;486424;244;27854;-74
2023/02/13 09:34:55;;;;;;;17.05;10.82;;;5.10;99.90;;;;;;486536;244;27487;-77
2023/02/13 09:36:56;;;;;;;17.05;10.80;;;5.10;99.90;;;;;;486510;244;27418;-75
2023/02/13 09:38:57;;;;;;;16.37;10.10;;;5.20;99.90;;;;;;486555;244;27518;-74
2023/02/13 09:40:59;;;;;;;15.05;10.25;;;5.40;99.90;;;;;;486587;244;27513;-75
2023/02/13 09:43:00;;;;;;;14.60;9.30;;;5.70;99.90;;;;;;486567;244;27960;-77
2023/02/13 09:45:01;;;;;;;16.10;10.48;;;5.60;99.90;;;;;;486578;244;27565;-74
2023/02/13 09:47:02;;;;;;;14.73;9.43;;;5.70;99.90;;;;;;486496;244;27409;-77
2023/02/13 09:49:04;;;;;;;16.10;10.65;;;5.80;99.90;;;;;;486560;244;27534;-74
2023/02/13 09:51:05;;;;;;;16.20;11.27;;;5.70;99.90;;;;;;486546;244;27489;-77
2023/02/13 09:53:06;;;;;;;15.27;8.82;;;5.70;99.90;;;;;;486517;244;27886;-77
2023/02/13 09:55:07;;;;;;;15.57;9.52;;;5.80;99.90;;;;;;486494;244;27955;-74
2023/02/13 09:57:09;;;;;;;14.27;9.30;;;5.90;99.90;;;;;;486517;244;27414;-74
2023/02/13 09:59:10;;;;;;;14.85;10.50;;;5.90;99.90;;;;;;486564;244;27410;-74
2023/02/13 10:01:11;;;;;;;12.95;9.10;;;6.10;99.90;;;;;;486526;244;27557;-77
2023/02/13 10:03:13;;;;;;;14.05;9.85;;;6.00;99.90;;;;;;486517;244;27466;-75
2023/02/13 10:05:14;;;;;;;14.30;9.10;;;6.00;99.90;;;;;;486522;244;28028;-77
2023/02/13 10:07:15;;;;;;;15.52;9.38;;;6.10;99.90;;;;;;486559;244;27435;-76
2023/02/13 10:09:16;;;;;;;17.05;9.70;;;6.10;99.90;;;;;;486573;244;27458;-76
2023/02/13 10:11:18;;;;;;;13.68;8.50;;;6.20;99.90;;;;;;486535;244;27555;-76
2023/02/13 10:13:22;;;;;;;14.32;9.23;;;6.30;99.90;;;;;;486541;244;27605;-75
2023/02/13 10:15:20;;;;;;;13.85;8.82;;;6.40;99.90;;;;;;486313;244;27500;-75
2023/02/13 10:17:21;;;;;;;17.75;9.95;;;6.40;99.90;;;;;;486573;244;27953;-76
2023/02/13 10:19:23;;;;;;;16.55;9.45;;;6.50;99.90;;;;;;486534;244;27395;-76
2023/02/13 10:21:24;;;;;;;16.27;10.30;;;6.60;99.90;;;;;;486512;244;27571;-77
2023/02/13 10:23:25;;;;;;;15.25;9.90;;;6.50;99.90;;;;;;486506;244;27498;-75
2023/02/13 10:25:26;;;;;;;14.20;9.25;;;6.50;99.90;;;;;;486486;244;27524;-76
2023/02/13 10:27:28;;;;;;;12.52;9.27;;;6.40;99.90;;;;;;486582;244;27962;-76
2023/02/13 10:31:49;;;;;;;13.32;8.10;;;6.30;99.90;;;;;;486503;240;27435;-75
2023/02/13 10:33:50;;;;;;;13.38;8.95;;;6.40;99.90;;;;;;486580;244;27438;-77
2023/02/13 10:35:51;;;;;;;11.53;7.63;;;6.30;99.90;;;;;;486521;244;27462;-76
2023/02/13 10:37:52;;;;;;;12.93;8.70;;;6.30;99.90;;;;;;486534;244;28840;-76
2023/02/13 10:39:54;;;;;;;11.40;8.05;;;6.40;99.90;;;;;;486503;244;27554;-75
2023/02/13 10:41:58;;;;;;;10.93;7.67;;;6.70;99.90;;;;;;486511;244;27966;-75
2023/02/13 10:43:59;;;;;;;13.30;8.70;;;6.70;99.90;;;;;;486509;244;29360;-76
2023/02/13 10:46:01;;;;;;;10.45;7.12;;;6.80;99.90;;;;;;486535;244;27437;-77
2023/02/13 10:48:02;;;;;;;10.93;7.60;;;6.80;99.90;;;;;;486512;244;27450;-77
2023/02/13 10:50:03;;;;;;;12.95;8.45;;;6.80;99.90;;;;;;486546;244;28787;-77
2023/02/13 10:52:04;;;;;;;10.60;7.67;;;6.80;99.90;;;;;;486551;244;27557;-77
2023/02/13 10:54:06;;;;;;;13.03;8.57;;;6.80;99.90;;;;;;486524;244;29216;-77
2023/02/13 10:56:07;;;;;;;13.10;8.17;;;7.20;99.90;;;;;;486523;244;28752;-76
2023/02/13 10:58:08;;;;;;;14.82;9.13;;;7.30;99.90;;;;;;486507;244;29347;-76
2023/02/13 11:00:09;;;;;;;10.80;7.33;;;7.20;99.90;;;;;;486533;244;27510;-76
2023/02/13 11:02:11;;;;;;;12.63;7.50;;;7.10;99.90;;;;;;486540;244;28794;-77
2023/02/13 11:04:12;;;;;;;9.57;6.40;;;7.20;99.90;;;;;;486526;244;28030;-77
2023/02/13 11:06:13;;;;;;;12.80;8.60;;;7.20;99.90;;;;;;486402;244;27901;-75